Time;durP1;ratioP1;P1;durP2;ratioP2;P2;SDS_P1;SDS_P2;PMS_P1;PMS_P2;Temp;Humidity;BMP_temperature;BMP_pressure;BME280_temperature;BME280_humidity;BME280_pressure;Samples;Min_cycle;Max_cycle;Signal;HPM_P1;HPM_P2
2023/11/15 00:01:51;;;;;;;5.07;2.13;;;9.80;99.90;;;;;;4918863;29;20194;-82
2023/11/15 00:04:20;;;;;;;9.80;2.78;;;9.80;99.90;;;;;;4934747;29;20205;-81
2023/11/15 00:06:47;;;;;;;8.23;2.30;;;9.80;99.90;;;;;;4918877;29;20225;-80
2023/11/15 00:09:13;;;;;;;6.63;2.58;;;9.80;99.90;;;;;;4935840;29;20209;-82
2023/11/15 00:11:39;;;;;;;6.63;2.55;;;9.80;99.90;;;;;;4936511;29;20186;-85
2023/11/15 00:14:05;;;;;;;5.05;2.38;;;9.80;99.90;;;;;;4936167;29;20972;-82
2023/11/15 00:19:16;;;;;;;8.07;2.65;;;9.80;99.90;;;;;;5115738;23;20329;-81
2023/11/15 00:21:42;;;;;;;6.85;2.42;;;9.80;99.90;;;;;;4917272;29;20178;-81
2023/11/15 00:24:08;;;;;;;7.40;2.42;;;9.80;99.90;;;;;;4917213;29;20230;-80
2023/11/15 00:26:34;;;;;;;7.30;2.80;;;9.80;99.90;;;;;;4917139;29;20220;-81
2023/11/15 00:29:00;;;;;;;8.55;2.80;;;9.80;99.90;;;;;;4900259;29;20508;-81
2023/11/15 00:31:25;;;;;;;4.82;2.30;;;9.80;99.90;;;;;;4917381;29;20629;-81
2023/11/15 00:33:51;;;;;;;4.95;2.60;;;9.80;99.90;;;;;;4916859;29;20197;-80
2023/11/15 00:36:20;;;;;;;7.63;2.50;;;9.90;99.90;;;;;;4900599;29;20240;-81
2023/11/15 00:38:46;;;;;;;5.10;1.92;;;10.00;99.90;;;;;;4916989;29;20673;-80
2023/11/15 00:41:13;;;;;;;3.22;1.95;;;10.00;99.90;;;;;;4917163;29;20183;-81
2023/11/15 00:43:38;;;;;;;5.45;1.80;;;10.10;99.90;;;;;;4916973;29;20618;-80
2023/11/15 00:46:04;;;;;;;4.75;1.70;;;10.10;99.90;;;;;;4916931;29;20214;-80
2023/11/15 00:48:30;;;;;;;9.85;2.35;;;10.10;99.90;;;;;;4909902;29;20650;-81
2023/11/15 00:50:56;;;;;;;3.88;1.90;;;10.10;99.90;;;;;;4917129;29;20187;-81
2023/11/15 00:53:22;;;;;;;4.72;2.35;;;10.00;99.90;;;;;;4916947;29;20266;-81
2023/11/15 00:55:48;;;;;;;4.75;1.98;;;10.00;99.90;;;;;;4916930;29;20194;-81
2023/11/15 00:58:14;;;;;;;6.30;2.20;;;10.00;99.90;;;;;;4917034;29;20234;-81
2023/11/15 01:00:44;;;;;;;5.10;2.00;;;10.00;99.90;;;;;;4916892;29;20218;-82
2023/11/15 01:03:25;;;;;;;8.07;2.05;;;10.10;99.90;;;;;;4916722;29;20513;-80
2023/11/15 01:05:52;;;;;;;4.70;2.40;;;10.00;99.90;;;;;;4916712;29;20281;-81
2023/11/15 01:08:17;;;;;;;6.88;2.40;;;10.10;99.90;;;;;;4916888;29;20221;-81
2023/11/15 01:10:43;;;;;;;5.55;2.13;;;10.10;99.90;;;;;;4916835;29;20215;-80
2023/11/15 01:13:11;;;;;;;4.22;2.20;;;10.10;99.90;;;;;;4916802;29;20286;-79
2023/11/15 01:15:36;;;;;;;7.93;2.38;;;10.10;99.90;;;;;;4916856;29;20197;-81
2023/11/15 01:18:07;;;;;;;5.90;2.45;;;10.00;99.90;;;;;;4913541;29;20666;-80
2023/11/15 01:20:34;;;;;;;5.47;2.72;;;10.00;99.90;;;;;;4896247;29;20523;-81
2023/11/15 01:23:00;;;;;;;5.30;2.50;;;10.00;99.90;;;;;;4902375;29;20191;-81
2023/11/15 01:25:30;;;;;;;9.10;2.60;;;9.90;99.90;;;;;;4903235;29;20202;-81
2023/11/15 01:27:57;;;;;;;6.90;2.80;;;9.90;99.90;;;;;;4903094;29;20633;-81
2023/11/15 01:30:24;;;;;;;14.02;2.45;;;9.90;99.90;;;;;;4920075;29;20178;-80
2023/11/15 01:32:52;;;;;;;8.32;2.28;;;10.00;99.90;;;;;;4919940;29;20190;-80
2023/11/15 01:35:18;;;;;;;10.75;2.53;;;10.00;99.90;;;;;;4919655;29;20712;-81
2023/11/15 01:37:46;;;;;;;7.55;2.30;;;10.00;99.90;;;;;;4919558;29;20269;-80
2023/11/15 01:40:13;;;;;;;8.80;2.35;;;10.10;99.90;;;;;;4919690;29;20178;-80
2023/11/15 01:42:42;;;;;;;8.52;2.30;;;10.00;99.90;;;;;;4902859;29;20269;-80
2023/11/15 01:45:08;;;;;;;9.15;2.50;;;10.00;99.90;;;;;;4902708;29;20214;-82
2023/11/15 01:47:34;;;;;;;7.13;2.45;;;9.90;99.90;;;;;;4919452;29;20645;-80
2023/11/15 01:50:04;;;;;;;14.57;2.67;;;9.90;99.90;;;;;;4919382;29;20266;-81
2023/11/15 01:52:29;;;;;;;7.05;2.20;;;9.90;99.90;;;;;;4902522;29;20928;-80
2023/11/15 01:54:58;;;;;;;7.50;2.10;;;10.00;99.90;;;;;;4919643;29;20237;-81
2023/11/15 01:57:24;;;;;;;9.38;2.17;;;10.00;99.90;;;;;;4902507;29;20186;-80
2023/11/15 01:59:51;;;;;;;10.15;2.38;;;10.00;99.90;;;;;;4911620;29;20190;-81
2023/11/15 02:02:17;;;;;;;7.88;2.00;;;10.00;99.90;;;;;;4919392;29;20193;-81
2023/11/15 02:04:43;;;;;;;8.82;2.47;;;10.00;99.90;;;;;;4919171;29;20261;-81
2023/11/15 02:07:09;;;;;;;7.93;2.33;;;9.90;99.90;;;;;;4919334;29;20234;-82
2023/11/15 02:09:36;;;;;;;8.00;2.30;;;10.00;99.90;;;;;;4919302;29;20181;-81
2023/11/15 02:12:02;;;;;;;11.93;2.30;;;10.00;99.90;;;;;;4919431;29;20652;-80
2023/11/15 02:14:30;;;;;;;7.30;1.92;;;10.00;99.90;;;;;;4919223;29;20174;-81
2023/11/15 02:16:56;;;;;;;16.38;3.00;;;10.00;99.90;;;;;;4904053;29;20179;-81
2023/11/15 02:19:22;;;;;;;5.70;2.03;;;10.00;99.90;;;;;;4912408;29;20238;-80
2023/11/15 02:21:48;;;;;;;6.88;2.03;;;10.00;99.90;;;;;;4918985;29;20186;-82
2023/11/15 02:24:14;;;;;;;12.77;1.92;;;10.10;99.90;;;;;;4919181;29;20519;-81
2023/11/15 02:26:39;;;;;;;9.52;2.13;;;10.00;99.90;;;;;;4901845;29;20210;-81
2023/11/15 02:29:05;;;;;;;8.75;2.42;;;10.00;99.90;;;;;;4902014;29;20218;-80
2023/11/15 02:31:34;;;;;;;6.40;1.95;;;9.90;99.90;;;;;;4918381;29;20269;-81
2023/11/15 02:33:59;;;;;;;4.78;2.17;;;9.90;99.90;;;;;;4918615;29;20179;-80
2023/11/15 02:36:28;;;;;;;7.38;1.73;;;9.90;99.90;;;;;;4918921;29;20273;-80
2023/11/15 02:38:54;;;;;;;2.00;0.60;;;9.80;99.90;;;;;;4918815;29;20295;-79
2023/11/15 02:41:20;;;;;;;4.20;0.73;;;9.60;99.90;;;;;;4918850;29;20238;-79
2023/11/15 02:43:45;;;;;;;3.63;0.95;;;9.40;99.90;;;;;;4918734;29;20250;-80
2023/11/15 02:46:11;;;;;;;2.93;0.60;;;9.20;99.90;;;;;;4901566;29;20215;-79
2023/11/15 02:48:37;;;;;;;2.20;0.65;;;9.10;99.90;;;;;;4911872;29;20175;-79
2023/11/15 02:51:03;;;;;;;3.00;0.53;;;9.00;99.90;;;;;;4918556;29;20359;-79
2023/11/15 02:53:28;;;;;;;2.38;0.68;;;9.00;99.90;;;;;;4918787;29;20186;-80
2023/11/15 02:55:54;;;;;;;2.17;0.63;;;9.00;99.90;;;;;;4918456;29;20186;-80
2023/11/15 02:58:20;;;;;;;1.53;0.70;;;8.90;99.90;;;;;;4918578;29;20187;-79
2023/11/15 03:00:45;;;;;;;4.20;0.85;;;8.90;99.90;;;;;;4918318;29;20706;-82
2023/11/15 03:03:12;;;;;;;2.00;0.70;;;8.80;99.90;;;;;;4918189;29;20179;-78
2023/11/15 03:05:38;;;;;;;2.13;0.80;;;8.90;99.90;;;;;;4918227;29;20195;-80
2023/11/15 03:08:05;;;;;;;1.45;0.63;;;8.80;99.90;;;;;;4918313;29;20234;-80
2023/11/15 03:10:32;;;;;;;1.53;0.90;;;8.70;99.90;;;;;;4918266;29;20186;-80
2023/11/15 03:12:58;;;;;;;3.70;0.97;;;8.70;99.90;;;;;;4918112;29;20544;-79
2023/11/15 03:15:24;;;;;;;1.52;0.93;;;8.70;99.90;;;;;;4918105;29;20202;-80
2023/11/15 03:17:50;;;;;;;3.43;0.80;;;8.60;99.90;;;;;;4916649;29;20197;-80
2023/11/15 03:20:16;;;;;;;2.90;0.90;;;8.60;99.90;;;;;;4912902;29;20197;-80
2023/11/15 03:22:41;;;;;;;1.07;0.83;;;8.60;99.90;;;;;;4918036;29;20182;-80
2023/11/15 03:25:07;;;;;;;1.40;0.80;;;8.60;99.90;;;;;;4918019;29;20530;-80
2023/11/15 03:27:33;;;;;;;1.17;0.77;;;8.60;99.90;;;;;;4917800;29;20262;-79
2023/11/15 03:29:58;;;;;;;3.53;1.20;;;8.60;99.90;;;;;;4917904;29;20190;-80
2023/11/15 03:32:24;;;;;;;4.70;1.10;;;8.60;99.90;;;;;;4886934;29;20623;-79
2023/11/15 03:34:50;;;;;;;1.50;0.97;;;8.60;99.90;;;;;;4900799;29;20186;-79
2023/11/15 03:37:16;;;;;;;3.83;1.30;;;8.60;99.90;;;;;;4917832;29;20193;-78
2023/11/15 03:39:42;;;;;;;2.90;1.20;;;8.60;99.90;;;;;;4917710;29;20618;-79
2023/11/15 03:42:07;;;;;;;2.50;1.00;;;8.60;99.90;;;;;;4917806;29;20183;-79
2023/11/15 03:44:33;;;;;;;1.50;1.00;;;8.50;99.90;;;;;;4917028;29;20209;-79
2023/11/15 03:46:59;;;;;;;3.00;1.08;;;8.50;99.90;;;;;;4917649;29;20217;-80
2023/11/15 03:49:25;;;;;;;3.13;1.00;;;8.50;99.90;;;;;;4910970;29;20181;-79
2023/11/15 03:51:51;;;;;;;4.07;1.03;;;8.50;99.90;;;;;;4917584;29;20269;-79
2023/11/15 03:54:16;;;;;;;6.27;1.50;;;8.50;99.90;;;;;;4900665;29;20644;-79
2023/11/15 03:56:42;;;;;;;3.93;1.10;;;8.50;99.90;;;;;;4917384;29;20186;-79
2023/11/15 03:59:09;;;;;;;2.17;0.83;;;8.50;99.90;;;;;;4900874;29;20216;-79
2023/11/15 04:01:35;;;;;;;2.53;1.10;;;8.40;99.90;;;;;;4917515;29;20186;-79
2023/11/15 04:04:01;;;;;;;1.30;0.80;;;8.40;99.90;;;;;;4917321;29;20179;-80
2023/11/15 04:06:27;;;;;;;3.30;1.10;;;8.40;99.90;;;;;;4917386;29;20672;-80
2023/11/15 04:08:56;;;;;;;3.37;0.90;;;8.30;99.90;;;;;;4917527;29;20222;-80
2023/11/15 04:11:22;;;;;;;2.23;1.20;;;8.30;99.90;;;;;;4917678;29;20178;-79
2023/11/15 04:13:47;;;;;;;3.40;1.10;;;8.30;99.90;;;;;;4917392;29;20178;-79
2023/11/15 04:16:13;;;;;;;2.30;1.20;;;8.30;99.90;;;;;;4917339;29;20186;-80
2023/11/15 04:18:39;;;;;;;3.83;0.93;;;8.30;99.90;;;;;;4910330;29;20310;-79
2023/11/15 04:21:05;;;;;;;2.67;1.20;;;8.30;99.90;;;;;;4917319;29;20194;-79
2023/11/15 04:23:31;;;;;;;2.07;1.07;;;8.20;99.90;;;;;;4900066;29;20189;-79
2023/11/15 04:25:58;;;;;;;2.10;0.97;;;8.20;99.90;;;;;;4900267;29;20202;-78
2023/11/15 04:28:24;;;;;;;3.50;1.17;;;8.20;99.90;;;;;;4917480;29;20202;-79
2023/11/15 04:30:50;;;;;;;8.67;1.20;;;8.30;99.90;;;;;;4900223;29;20186;-79
2023/11/15 04:33:15;;;;;;;1.30;0.90;;;8.20;99.90;;;;;;4917182;29;20238;-79
2023/11/15 04:35:41;;;;;;;2.00;1.03;;;8.20;99.90;;;;;;4900029;29;20182;-79
2023/11/15 04:38:09;;;;;;;2.93;0.80;;;8.20;99.90;;;;;;4917143;29;20566;-79
2023/11/15 04:40:37;;;;;;;3.00;0.90;;;8.20;99.90;;;;;;4917287;29;20202;-79
2023/11/15 04:43:04;;;;;;;3.73;0.97;;;8.20;99.90;;;;;;4917281;29;20171;-79
2023/11/15 04:45:30;;;;;;;2.67;0.87;;;8.20;99.90;;;;;;4917133;29;20897;-79
2023/11/15 04:47:56;;;;;;;2.30;0.80;;;8.20;99.90;;;;;;4899909;29;20182;-80
2023/11/15 04:50:22;;;;;;;2.03;0.87;;;8.20;99.90;;;;;;4912485;29;20179;-80
2023/11/15 04:52:48;;;;;;;1.30;0.60;;;8.10;99.90;;;;;;4916928;29;20238;-79
2023/11/15 04:55:14;;;;;;;2.47;0.80;;;8.20;99.90;;;;;;4918529;29;20190;-80
2023/11/15 04:57:40;;;;;;;2.47;0.77;;;8.20;99.90;;;;;;4920609;29;20214;-79
2023/11/15 05:00:10;;;;;;;1.50;0.80;;;8.10;99.90;;;;;;4920733;29;20337;-80
2023/11/15 05:02:36;;;;;;;1.43;0.93;;;8.10;99.90;;;;;;4920610;29;20697;-80
2023/11/15 05:05:05;;;;;;;1.30;0.80;;;8.10;99.90;;;;;;4903262;29;20273;-79
2023/11/15 05:07:36;;;;;;;1.33;0.80;;;8.10;99.90;;;;;;4903823;29;20198;-79
2023/11/15 05:10:04;;;;;;;2.30;0.90;;;8.10;99.90;;;;;;4903419;29;20194;-80
2023/11/15 05:12:31;;;;;;;1.83;0.90;;;8.10;99.90;;;;;;4920465;29;20194;-79
2023/11/15 05:14:57;;;;;;;2.47;0.80;;;8.00;99.90;;;;;;4888461;29;20222;-80
2023/11/15 05:17:23;;;;;;;2.60;0.70;;;8.10;99.90;;;;;;4920258;29;20217;-79
2023/11/15 05:19:48;;;;;;;1.00;0.60;;;8.10;99.90;;;;;;4913357;29;20798;-80
2023/11/15 05:22:14;;;;;;;2.20;0.70;;;8.00;99.90;;;;;;4902675;29;20190;-80
2023/11/15 05:24:40;;;;;;;1.70;0.70;;;7.90;99.90;;;;;;4919042;29;20661;-79
2023/11/15 05:27:06;;;;;;;4.23;0.80;;;7.90;99.90;;;;;;4920058;29;20210;-79
2023/11/15 05:29:31;;;;;;;1.13;0.70;;;7.80;99.90;;;;;;4920063;29;20269;-79
2023/11/15 05:31:57;;;;;;;1.83;0.90;;;7.80;99.90;;;;;;4920222;29;20186;-80
2023/11/15 05:34:23;;;;;;;1.37;0.60;;;7.80;99.90;;;;;;4919660;29;20665;-79
2023/11/15 05:36:48;;;;;;;1.53;0.70;;;7.70;99.90;;;;;;4919542;29;20598;-80
2023/11/15 05:39:14;;;;;;;2.63;0.90;;;7.70;99.90;;;;;;4903078;29;20273;-80
2023/11/15 05:41:40;;;;;;;2.13;0.73;;;7.70;99.90;;;;;;4919803;29;20618;-79
2023/11/15 05:44:06;;;;;;;0.80;0.70;;;7.70;99.90;;;;;;4919875;29;20178;-79
2023/11/15 05:46:33;;;;;;;1.87;0.77;;;7.70;99.90;;;;;;4919572;29;20211;-79
2023/11/15 05:48:59;;;;;;;2.30;0.80;;;7.60;99.90;;;;;;4895871;29;20286;-79
2023/11/15 05:51:25;;;;;;;2.17;0.60;;;7.60;99.90;;;;;;4920000;29;20182;-80
2023/11/15 05:53:51;;;;;;;2.37;0.80;;;7.60;99.90;;;;;;4919589;29;20193;-79
2023/11/15 05:56:17;;;;;;;2.00;0.60;;;7.50;99.90;;;;;;4902741;29;20688;-80
2023/11/15 05:58:43;;;;;;;1.20;0.60;;;7.50;99.90;;;;;;4902515;29;20684;-79
2023/11/15 06:01:09;;;;;;;1.80;0.70;;;7.50;99.90;;;;;;4902591;29;20190;-79
2023/11/15 06:03:35;;;;;;;1.63;0.60;;;7.50;99.90;;;;;;4902307;29;20621;-80
2023/11/15 06:06:02;;;;;;;7.27;0.80;;;7.50;99.90;;;;;;4918629;29;20218;-79
2023/11/15 06:08:27;;;;;;;2.90;0.93;;;7.40;99.90;;;;;;4919270;29;20634;-79
2023/11/15 06:10:53;;;;;;;2.53;0.63;;;7.40;99.90;;;;;;4901990;29;20266;-79
2023/11/15 06:13:19;;;;;;;1.57;0.60;;;7.40;99.90;;;;;;4886844;29;20183;-80
2023/11/15 06:15:44;;;;;;;1.93;0.90;;;7.40;99.90;;;;;;4919283;29;20186;-79
2023/11/15 06:18:13;;;;;;;2.80;0.80;;;7.30;99.90;;;;;;4915155;29;20250;-80
2023/11/15 06:20:39;;;;;;;2.73;0.97;;;7.30;99.90;;;;;;4916688;29;20183;-79
2023/11/15 06:23:05;;;;;;;1.53;0.90;;;7.30;99.90;;;;;;4919479;29;20645;-79
2023/11/15 06:25:34;;;;;;;1.50;0.90;;;7.20;99.90;;;;;;4916537;29;20217;-79
2023/11/15 06:28:00;;;;;;;1.20;1.03;;;7.20;99.90;;;;;;4918523;29;20195;-80
2023/11/15 06:30:25;;;;;;;1.30;1.10;;;7.10;99.90;;;;;;4914471;29;20179;-79
2023/11/15 06:32:51;;;;;;;3.43;1.30;;;7.00;99.90;;;;;;4880965;29;20222;-80
2023/11/15 06:35:20;;;;;;;4.03;1.20;;;6.90;99.90;;;;;;4918188;29;20182;-81
2023/11/15 06:37:46;;;;;;;1.40;1.03;;;6.80;99.90;;;;;;4899456;29;20179;-80
2023/11/15 06:40:14;;;;;;;2.80;1.10;;;6.80;99.90;;;;;;4902129;29;20182;-80
2023/11/15 06:42:40;;;;;;;3.97;1.50;;;6.80;99.90;;;;;;4917949;29;20183;-81
2023/11/15 06:45:06;;;;;;;2.13;0.80;;;6.70;99.90;;;;;;4918214;29;20235;-80
2023/11/15 06:47:33;;;;;;;1.50;1.03;;;6.70;99.90;;;;;;4918399;29;20194;-80
2023/11/15 06:49:58;;;;;;;3.23;0.90;;;6.70;99.90;;;;;;4911775;29;20182;-80
2023/11/15 06:52:25;;;;;;;2.70;0.90;;;6.70;99.90;;;;;;4916952;29;20212;-80
2023/11/15 06:54:52;;;;;;;1.27;0.90;;;6.70;99.90;;;;;;4918402;29;20197;-80
2023/11/15 06:57:19;;;;;;;3.40;1.27;;;6.60;99.90;;;;;;4909167;29;20182;-80
2023/11/15 06:59:45;;;;;;;5.10;1.50;;;6.60;99.90;;;;;;4917898;29;20182;-80
2023/11/15 07:02:11;;;;;;;4.27;1.70;;;6.60;99.90;;;;;;4918052;29;20254;-81
2023/11/15 07:04:37;;;;;;;4.33;1.30;;;6.60;99.90;;;;;;4917593;29;20226;-81
2023/11/15 07:07:03;;;;;;;2.30;1.10;;;6.60;99.90;;;;;;4917980;29;20210;-79
2023/11/15 07:09:29;;;;;;;2.50;1.00;;;6.60;99.90;;;;;;4917483;29;20185;-81
2023/11/15 07:11:56;;;;;;;2.47;1.10;;;6.60;99.90;;;;;;4917745;29;20186;-80
2023/11/15 07:14:23;;;;;;;3.17;1.17;;;6.70;99.90;;;;;;4917347;29;20260;-80
2023/11/15 07:16:55;;;;;;;3.60;1.07;;;6.70;99.90;;;;;;4917267;29;20185;-80
2023/11/15 07:19:24;;;;;;;5.40;1.10;;;6.70;99.90;;;;;;4907434;29;20238;-80
2023/11/15 07:21:52;;;;;;;2.77;1.00;;;6.70;99.90;;;;;;4900404;29;20645;-81
2023/11/15 07:24:19;;;;;;;1.47;1.07;;;6.80;99.90;;;;;;4900707;29;20182;-80
2023/11/15 07:26:45;;;;;;;3.10;1.33;;;6.80;99.90;;;;;;4917487;29;20749;-80
2023/11/15 07:29:13;;;;;;;3.37;1.93;;;6.90;99.90;;;;;;4917333;29;20179;-80
2023/11/15 07:31:40;;;;;;;4.93;1.27;;;6.90;99.90;;;;;;4917707;29;20222;-80
2023/11/15 07:34:08;;;;;;;3.17;1.50;;;7.00;99.90;;;;;;4900258;29;20186;-80
2023/11/15 07:36:34;;;;;;;4.13;1.87;;;7.10;99.90;;;;;;4911380;29;20221;-80
2023/11/15 07:39:06;;;;;;;5.67;2.00;;;7.20;99.90;;;;;;4917425;29;20190;-80
2023/11/15 07:41:35;;;;;;;3.53;2.17;;;7.30;99.90;;;;;;4917486;29;20206;-80
2023/11/15 07:44:01;;;;;;;10.43;1.80;;;7.40;99.90;;;;;;4916006;29;20206;-79
2023/11/15 07:46:30;;;;;;;7.87;1.40;;;7.40;99.90;;;;;;4912936;29;20253;-80
2023/11/15 07:48:58;;;;;;;4.40;1.50;;;7.50;99.90;;;;;;4910050;29;20201;-79
2023/11/15 07:51:23;;;;;;;3.10;1.42;;;7.50;99.90;;;;;;4917114;29;20179;-80
2023/11/15 07:53:49;;;;;;;5.20;1.73;;;7.60;99.90;;;;;;4917241;29;20181;-82
2023/11/15 07:56:19;;;;;;;3.28;1.50;;;7.70;99.90;;;;;;4917216;29;20674;-80
2023/11/15 07:58:45;;;;;;;7.20;1.50;;;7.60;99.90;;;;;;4900303;29;20269;-80
2023/11/15 08:01:11;;;;;;;4.10;1.70;;;7.70;99.90;;;;;;4917245;29;20568;-81
2023/11/15 08:03:37;;;;;;;3.70;1.87;;;7.70;99.90;;;;;;4899909;29;20191;-81
2023/11/15 08:06:03;;;;;;;5.10;2.00;;;7.80;99.90;;;;;;4917297;29;20210;-81
2023/11/15 08:08:29;;;;;;;6.87;1.90;;;7.90;99.90;;;;;;4900368;29;20198;-81
2023/11/15 08:10:55;;;;;;;4.47;2.00;;;7.90;99.90;;;;;;4916997;29;20195;-83
2023/11/15 08:13:21;;;;;;;5.13;1.97;;;7.90;99.90;;;;;;4917177;29;20191;-79
2023/11/15 08:15:47;;;;;;;5.37;1.97;;;7.90;99.90;;;;;;4900318;29;20277;-80
2023/11/15 08:18:14;;;;;;;3.28;1.80;;;7.90;99.90;;;;;;4901745;29;20314;-80
2023/11/15 08:20:43;;;;;;;4.65;2.03;;;7.90;99.90;;;;;;4897708;29;20218;-81
2023/11/15 08:23:10;;;;;;;5.97;1.70;;;8.00;99.90;;;;;;4917161;29;20175;-79
2023/11/15 08:25:38;;;;;;;7.72;2.38;;;8.00;99.90;;;;;;4908590;29;20215;-80
2023/11/15 08:28:04;;;;;;;4.57;2.40;;;8.00;99.90;;;;;;4917150;29;20191;-83
2023/11/15 08:30:30;;;;;;;10.40;2.33;;;8.00;99.90;;;;;;4919395;29;20186;-82
2023/11/15 08:32:56;;;;;;;3.22;2.38;;;8.20;99.90;;;;;;4920937;29;20653;-80
2023/11/15 08:35:22;;;;;;;6.35;2.55;;;8.20;99.90;;;;;;4920737;29;20185;-80
2023/11/15 08:37:48;;;;;;;8.02;2.70;;;8.20;99.90;;;;;;4920634;29;20190;-81
2023/11/15 08:40:14;;;;;;;4.77;2.50;;;8.30;99.90;;;;;;4920926;29;20199;-80
2023/11/15 08:42:40;;;;;;;5.68;2.67;;;8.30;99.90;;;;;;4920858;29;20641;-80
2023/11/15 08:45:08;;;;;;;3.65;2.67;;;8.40;99.90;;;;;;4920865;29;20205;-80
2023/11/15 08:47:35;;;;;;;6.22;2.58;;;8.40;99.90;;;;;;4899109;29;20243;-82
2023/11/15 08:50:00;;;;;;;7.88;2.80;;;8.40;99.90;;;;;;4899691;29;20191;-80
2023/11/15 08:52:26;;;;;;;7.28;3.20;;;8.50;99.90;;;;;;4916708;29;20179;-80
2023/11/15 08:54:53;;;;;;;4.80;3.08;;;8.50;99.90;;;;;;4920753;29;20189;-81
2023/11/15 08:57:19;;;;;;;7.57;3.50;;;8.60;99.90;;;;;;4918358;29;20178;-81
2023/11/15 08:59:45;;;;;;;6.30;3.60;;;8.60;99.90;;;;;;4903691;29;20615;-81
2023/11/15 09:02:15;;;;;;;6.72;3.70;;;8.70;99.90;;;;;;4920469;29;20190;-82
2023/11/15 09:04:41;;;;;;;5.95;3.60;;;8.80;99.90;;;;;;4920382;29;20229;-81
2023/11/15 09:07:07;;;;;;;6.05;4.00;;;8.90;99.90;;;;;;4920121;29;20225;-82
2023/11/15 09:09:41;;;;;;;9.65;4.25;;;8.90;99.90;;;;;;4902960;29;20614;-80
2023/11/15 09:12:08;;;;;;;5.82;3.55;;;9.00;99.90;;;;;;4920692;29;20571;-81
2023/11/15 09:14:35;;;;;;;6.13;3.88;;;9.00;99.90;;;;;;4920157;29;20370;-80
2023/11/15 09:17:07;;;;;;;6.63;3.88;;;9.00;99.90;;;;;;4920676;29;20195;-81
2023/11/15 09:19:33;;;;;;;9.57;4.28;;;9.10;99.90;;;;;;4877557;29;20251;-83
2023/11/15 09:22:02;;;;;;;7.55;3.88;;;9.10;99.90;;;;;;4881475;29;20187;-81
2023/11/15 09:24:29;;;;;;;7.05;4.10;;;9.30;99.90;;;;;;4882789;29;20521;-81
2023/11/15 09:26:57;;;;;;;9.40;4.13;;;9.30;99.90;;;;;;4882479;29;20223;-80
2023/11/15 09:29:24;;;;;;;6.78;4.20;;;9.20;99.90;;;;;;4882665;29;20583;-80
2023/11/15 09:31:52;;;;;;;5.93;4.22;;;9.30;99.90;;;;;;4882260;29;20284;-80
2023/11/15 09:34:17;;;;;;;7.60;3.97;;;9.30;99.90;;;;;;4881126;29;20589;-82
2023/11/15 09:36:43;;;;;;;9.73;4.20;;;9.30;99.90;;;;;;4882155;29;20221;-81
2023/11/15 09:39:16;;;;;;;8.95;3.95;;;9.30;99.90;;;;;;4882537;29;20247;-82
2023/11/15 09:41:49;;;;;;;9.98;4.07;;;9.40;99.90;;;;;;4880072;29;20192;-81
2023/11/15 09:44:18;;;;;;;6.65;4.72;;;9.40;99.90;;;;;;4882688;29;20195;-81
2023/11/15 09:46:45;;;;;;;6.90;4.28;;;9.30;99.90;;;;;;4881094;29;20224;-81
2023/11/15 09:49:14;;;;;;;8.88;4.80;;;9.30;99.90;;;;;;4875834;29;20188;-81
2023/11/15 09:51:40;;;;;;;8.40;4.15;;;9.30;99.90;;;;;;4881896;29;20725;-81
2023/11/15 09:54:06;;;;;;;6.57;4.00;;;9.40;99.90;;;;;;4882211;29;20188;-81
2023/11/15 09:56:35;;;;;;;6.95;4.40;;;9.40;99.90;;;;;;4882072;29;20187;-80
2023/11/15 09:59:02;;;;;;;6.00;3.80;;;9.50;99.90;;;;;;4882210;29;20288;-82
2023/11/15 10:01:28;;;;;;;8.80;4.20;;;9.50;99.90;;;;;;4882118;29;20203;-82
2023/11/15 10:03:54;;;;;;;5.20;4.10;;;9.40;99.90;;;;;;4881865;29;20624;-80
2023/11/15 10:06:20;;;;;;;6.40;4.10;;;9.40;99.90;;;;;;4881745;29;20212;-82
2023/11/15 10:08:53;;;;;;;6.30;3.33;;;9.40;99.90;;;;;;4882170;29;20199;-81
2023/11/15 10:11:20;;;;;;;6.57;3.80;;;9.40;99.90;;;;;;4880663;29;20571;-83
2023/11/15 10:13:52;;;;;;;6.13;3.60;;;9.40;99.90;;;;;;4881617;29;20207;-83
2023/11/15 10:16:22;;;;;;;5.65;3.97;;;9.40;99.90;;;;;;4881651;29;20184;-83
2023/11/15 10:18:49;;;;;;;4.13;3.33;;;9.50;99.90;;;;;;4894513;29;20326;-82
2023/11/15 10:21:15;;;;;;;7.00;3.63;;;9.50;99.90;;;;;;4918610;29;20182;-81
2023/11/15 10:23:41;;;;;;;5.15;3.35;;;9.60;99.90;;;;;;4887947;29;20190;-81
2023/11/15 10:26:09;;;;;;;4.38;3.30;;;9.60;99.90;;;;;;4918689;29;20597;-79
2023/11/15 10:28:39;;;;;;;3.60;2.50;;;9.60;99.90;;;;;;4918743;29;20185;-81
2023/11/15 10:31:09;;;;;;;6.15;3.15;;;9.60;99.90;;;;;;4900831;29;20191;-81
2023/11/15 10:33:37;;;;;;;3.67;2.80;;;9.50;99.90;;;;;;4918837;29;20178;-81
2023/11/15 10:36:21;;;;;;;4.13;2.55;;;9.60;99.90;;;;;;4918547;29;20523;-81
2023/11/15 10:38:54;;;;;;;8.43;2.15;;;9.50;99.90;;;;;;4918631;29;20273;-81
2023/11/15 10:41:22;;;;;;;3.42;1.80;;;9.60;99.90;;;;;;4919168;29;20190;-81
2023/11/15 10:43:50;;;;;;;3.70;2.00;;;9.70;99.90;;;;;;4918631;29;20262;-81
2023/11/15 10:46:18;;;;;;;4.47;1.90;;;9.80;99.90;;;;;;4918662;29;20670;-82
2023/11/15 10:48:47;;;;;;;7.63;2.00;;;9.70;99.90;;;;;;4910327;29;20210;-81
2023/11/15 10:51:22;;;;;;;3.55;1.92;;;9.80;99.90;;;;;;4912647;29;20610;-82
2023/11/15 10:53:48;;;;;;;2.88;1.85;;;9.80;99.90;;;;;;4918521;29;20182;-81
2023/11/15 10:56:15;;;;;;;5.45;2.10;;;9.80;99.90;;;;;;4918612;29;20182;-81
2023/11/15 10:58:47;;;;;;;4.05;2.10;;;9.80;99.90;;;;;;4901415;29;20194;-82
2023/11/15 11:01:16;;;;;;;1.88;1.25;;;9.80;99.90;;;;;;4918686;29;20174;-81
2023/11/15 11:03:49;;;;;;;3.78;1.77;;;9.90;99.90;;;;;;4901771;29;20177;-82
2023/11/15 11:06:39;;;;;;;2.30;1.52;;;10.00;99.90;;;;;;4918124;29;20214;-81
2023/11/15 11:09:16;;;;;;;4.22;1.60;;;10.10;99.90;;;;;;4904865;29;20186;-82
2023/11/15 11:12:05;;;;;;;7.28;1.90;;;10.20;99.90;;;;;;4918189;29;20330;-81
2023/11/15 11:14:31;;;;;;;2.42;1.75;;;10.10;99.90;;;;;;4901293;29;20186;-81
2023/11/15 11:16:59;;;;;;;2.63;1.58;;;10.20;99.90;;;;;;4918099;29;20693;-81
2023/11/15 11:19:26;;;;;;;2.97;1.58;;;10.20;99.90;;;;;;4911370;29;20247;-81
2023/11/15 11:22:04;;;;;;;3.38;1.73;;;10.20;99.90;;;;;;4917635;29;20614;-82
2023/11/15 11:24:34;;;;;;;3.95;1.52;;;10.20;99.90;;;;;;4918000;29;20186;-81
2023/11/15 11:27:12;;;;;;;4.03;1.70;;;10.20;99.90;;;;;;4917852;29;20722;-82
2023/11/15 11:30:11;;;;;;;4.18;1.75;;;10.20;99.90;;;;;;4918146;29;20182;-81
2023/11/15 11:32:41;;;;;;;5.10;1.60;;;10.20;99.90;;;;;;4886832;29;20194;-82
2023/11/15 11:35:07;;;;;;;3.95;1.48;;;10.30;99.90;;;;;;4901896;29;20183;-82
2023/11/15 11:38:04;;;;;;;2.72;1.75;;;10.40;99.90;;;;;;4917676;29;20250;-81
2023/11/15 11:40:38;;;;;;;7.32;1.88;;;10.40;99.90;;;;;;4917919;29;20193;-82
2023/11/15 11:43:21;;;;;;;1.85;1.45;;;10.30;99.90;;;;;;4887121;29;20190;-81
2023/11/15 11:45:50;;;;;;;6.63;2.03;;;10.30;99.90;;;;;;4917513;29;20315;-82
2023/11/15 11:48:22;;;;;;;2.63;1.35;;;10.30;99.90;;;;;;4896043;29;20191;-81
2023/11/15 11:51:03;;;;;;;3.03;1.48;;;10.20;99.90;;;;;;4916052;29;20230;-81
2023/11/15 11:53:29;;;;;;;2.25;1.58;;;10.20;99.90;;;;;;4917651;29;20182;-82
2023/11/15 11:55:57;;;;;;;4.60;1.67;;;10.10;99.90;;;;;;4917215;29;20680;-82
2023/11/15 11:58:25;;;;;;;3.15;1.55;;;10.10;99.90;;;;;;4917589;29;20227;-81
2023/11/15 12:01:01;;;;;;;7.32;1.90;;;10.10;99.90;;;;;;4917359;29;20186;-81
2023/11/15 12:03:30;;;;;;;4.53;1.70;;;10.10;99.90;;;;;;4900504;29;20233;-81
2023/11/15 12:05:57;;;;;;;4.30;1.63;;;10.00;99.90;;;;;;4916329;29;20198;-82
2023/11/15 12:08:23;;;;;;;2.47;1.70;;;10.00;99.90;;;;;;4917647;29;20265;-81
2023/11/15 12:10:50;;;;;;;5.18;1.75;;;9.90;99.90;;;;;;4916970;29;20584;-81
2023/11/15 12:13:16;;;;;;;2.22;1.50;;;10.00;99.90;;;;;;4917293;29;20519;-82
2023/11/15 12:15:43;;;;;;;9.52;2.20;;;10.00;99.90;;;;;;4917327;29;20178;-81
2023/11/15 12:18:12;;;;;;;3.80;1.70;;;9.90;99.90;;;;;;4912968;29;20287;-81
2023/11/15 12:20:39;;;;;;;3.25;1.60;;;10.00;99.90;;;;;;4897022;29;20234;-81
2023/11/15 12:23:08;;;;;;;4.57;1.52;;;10.00;99.90;;;;;;4916625;29;20657;-81
2023/11/15 12:25:47;;;;;;;2.13;1.42;;;9.90;99.90;;;;;;4917123;29;20856;-80
2023/11/15 12:28:22;;;;;;;3.40;1.50;;;10.00;99.90;;;;;;4917553;29;20568;-82
2023/11/15 12:30:49;;;;;;;4.20;1.65;;;10.00;99.90;;;;;;4896479;29;20186;-81
2023/11/15 12:33:15;;;;;;;8.80;1.52;;;10.00;99.90;;;;;;4906044;29;20190;-81
2023/11/15 12:35:43;;;;;;;4.60;1.48;;;10.00;99.90;;;;;;4916839;29;20197;-82
2023/11/15 12:38:12;;;;;;;5.43;1.80;;;10.00;99.90;;;;;;4917202;29;20516;-81
2023/11/15 12:40:42;;;;;;;3.22;1.80;;;10.10;99.90;;;;;;4917180;29;20178;-81
2023/11/15 12:43:21;;;;;;;5.38;1.50;;;10.10;99.90;;;;;;4917598;29;20606;-81
2023/11/15 12:45:52;;;;;;;5.45;1.52;;;10.10;99.90;;;;;;4901439;29;20592;-80
2023/11/15 12:48:19;;;;;;;5.70;1.27;;;10.00;99.90;;;;;;4895554;29;20187;-81
2023/11/15 12:50:47;;;;;;;4.18;1.33;;;10.00;99.90;;;;;;4915087;29;20205;-81
2023/11/15 12:53:15;;;;;;;5.55;1.73;;;9.90;99.90;;;;;;4917066;29;20175;-81
2023/11/15 12:55:51;;;;;;;2.35;1.50;;;9.90;99.90;;;;;;4916956;29;20618;-80
2023/11/15 12:58:19;;;;;;;4.75;1.48;;;9.90;99.90;;;;;;4916893;29;20214;-80
2023/11/15 13:00:59;;;;;;;5.68;1.52;;;9.80;99.90;;;;;;4901389;29;20185;-81